createdAt,value
2023-01-12T00:01:41.598Z,78.37
2023-01-12T00:04:15.019Z,78.39
2023-01-12T00:06:48.371Z,78.37
2023-01-12T00:09:18.996Z,78.09
2023-01-12T00:11:49.729Z,78.04
2023-01-12T00:14:20.226Z,78.00
2023-01-12T00:16:50.722Z,77.96
2023-01-12T00:19:22.202Z,77.97
2023-01-12T00:21:59.533Z,77.86
2023-01-12T00:24:31.960Z,77.76
2023-01-12T00:27:04.226Z,78.01
2023-01-12T00:29:35.127Z,78.00
2023-01-12T00:32:07.438Z,77.79
2023-01-12T00:34:37.826Z,77.77
2023-01-12T00:37:10.946Z,77.89
2023-01-12T00:42:38.722Z,77.80
2023-01-12T00:45:24.858Z,77.86
2023-01-12T00:47:56.267Z,77.88
2023-01-12T00:50:26.661Z,77.64
2023-01-12T00:53:01.566Z,77.75
2023-01-12T00:55:33.524Z,77.56
2023-01-12T00:58:04.136Z,77.63
2023-01-12T01:00:34.578Z,77.66
2023-01-12T01:03:05.089Z,77.51
2023-01-12T01:05:35.521Z,77.50
2023-01-12T01:08:09.709Z,77.47
2023-01-12T01:10:40.452Z,77.73
2023-01-12T01:13:12.599Z,77.71
2023-01-12T01:15:45.728Z,77.74
2023-01-12T01:18:16.459Z,77.71
2023-01-12T01:20:49.669Z,77.97
2023-01-12T01:23:24.399Z,77.63
2023-01-12T01:25:55.147Z,77.25
2023-01-12T01:28:25.773Z,77.41
2023-01-12T01:30:56.636Z,77.51
2023-01-12T01:33:30.665Z,77.28
2023-01-12T01:36:02.071Z,77.22
2023-01-12T01:38:35.242Z,77.05
2023-01-12T01:46:53.364Z,76.71
2023-01-12T01:49:31.721Z,76.60
2023-01-12T01:52:06.423Z,76.79
2023-01-12T01:54:42.962Z,76.57
2023-01-12T01:57:19.915Z,76.68
2023-01-12T01:59:57.360Z,76.39
2023-01-12T02:02:29.375Z,76.50
2023-01-12T02:05:00.829Z,76.60
2023-01-12T02:07:31.457Z,76.39
2023-01-12T02:10:04.598Z,76.60
2023-01-12T02:12:48.046Z,76.83
2023-01-12T02:15:31.003Z,76.99
2023-01-12T02:18:12.191Z,76.93
2023-01-12T02:20:53.190Z,77.19
2023-01-12T02:23:57.083Z,77.37
2023-01-12T02:27:05.291Z,77.26
2023-01-12T02:30:09.626Z,77.76
2023-01-12T02:32:51.537Z,77.82
2023-01-12T02:35:31.586Z,78.10
2023-01-12T02:38:12.185Z,78.09
2023-01-12T02:40:56.045Z,78.39
2023-01-12T02:43:29.172Z,78.42
2023-01-12T02:46:23.078Z,78.67
2023-01-12T02:49:01.295Z,78.37
2023-01-12T02:51:42.281Z,78.69
2023-01-12T02:54:15.389Z,78.55
2023-01-12T02:56:48.717Z,78.36
2023-01-12T02:59:23.981Z,78.54
2023-01-12T03:02:06.021Z,78.31
2023-01-12T03:04:40.273Z,78.49
2023-01-12T03:07:41.520Z,78.46
2023-01-12T03:10:46.575Z,78.16
2023-01-12T03:13:19.286Z,78.45
2023-01-12T03:15:55.243Z,78.54
2023-01-12T03:18:34.059Z,78.76
2023-01-12T03:21:12.731Z,78.74
2023-01-12T03:23:48.133Z,78.92
2023-01-12T03:26:27.879Z,79.00
2023-01-12T03:29:05.129Z,79.30
2023-01-12T03:31:36.147Z,79.36
2023-01-12T03:34:07.598Z,79.48
2023-01-12T03:36:48.337Z,79.25
2023-01-12T03:39:25.959Z,79.26
2023-01-12T03:42:04.235Z,79.01
2023-01-12T03:44:45.812Z,79.23
2023-01-12T03:47:21.441Z,79.06
2023-01-12T03:49:57.702Z,79.03
2023-01-12T03:52:35.222Z,79.01
2023-01-12T03:55:10.039Z,78.93
2023-01-12T03:57:42.530Z,79.13
2023-01-12T04:00:16.235Z,79.20
2023-01-12T04:02:47.537Z,79.33
2023-01-12T04:05:18.741Z,79.39
2023-01-12T04:07:51.708Z,79.25
2023-01-12T04:10:28.365Z,79.61
2023-01-12T04:12:59.222Z,79.68
2023-01-12T04:15:29.620Z,80.22
2023-01-12T04:18:00.225Z,80.51
2023-01-12T04:20:30.600Z,80.35
2023-01-12T04:23:01.186Z,80.47
2023-01-12T04:25:31.697Z,80.88
2023-01-12T04:28:03.802Z,80.96
2023-01-12T04:30:36.441Z,81.20
2023-01-12T04:33:11.325Z,81.29
2023-01-12T04:35:42.723Z,81.34
2023-01-12T04:38:16.852Z,81.27
2023-01-12T04:40:47.123Z,82.18
2023-01-12T04:43:17.600Z,81.54
2023-01-12T04:45:48.070Z,81.41
2023-01-12T04:48:19.581Z,81.25
2023-01-12T04:50:56.372Z,81.27
2023-01-12T04:53:44.344Z,81.31
2023-01-12T04:56:14.702Z,81.28
2023-01-12T04:58:45.273Z,81.52
2023-01-12T05:01:17.481Z,81.34
2023-01-12T05:03:48.536Z,81.45
2023-01-12T05:06:18.992Z,81.51
2023-01-12T05:09:04.781Z,81.39
2023-01-12T05:11:35.396Z,81.54
2023-01-12T05:14:06.109Z,81.56
2023-01-12T05:16:36.804Z,81.64
2023-01-12T05:19:07.519Z,81.83
2023-01-12T05:21:37.959Z,81.99
2023-01-12T05:24:11.524Z,82.00
2023-01-12T05:26:41.971Z,82.21
2023-01-12T05:29:14.486Z,82.26
2023-01-12T05:31:47.621Z,82.32
2023-01-12T05:34:20.665Z,82.35
2023-01-12T05:36:56.291Z,82.38
2023-01-12T05:39:30.282Z,82.46
2023-01-12T05:42:14.146Z,82.14
2023-01-12T05:44:44.607Z,82.22
2023-01-12T05:47:24.281Z,82.19
2023-01-12T05:49:54.668Z,81.88
2023-01-12T05:52:25.178Z,81.99
2023-01-12T05:54:58.260Z,81.76
2023-01-12T05:57:32.071Z,81.72
2023-01-12T06:00:02.739Z,81.65
2023-01-12T06:02:42.922Z,81.85
2023-01-12T06:05:13.499Z,81.71
2023-01-12T06:07:45.916Z,81.80
2023-01-12T06:10:20.507Z,81.62
2023-01-12T06:13:22.329Z,81.85
2023-01-12T06:15:53.740Z,81.87
2023-01-12T06:18:24.212Z,81.77
2023-01-12T06:20:54.944Z,81.48
2023-01-12T06:23:34.878Z,81.62
2023-01-12T06:26:11.080Z,81.67
2023-01-12T06:28:43.041Z,81.53
2023-01-12T06:31:15.659Z,81.50
2023-01-12T06:33:47.750Z,81.41
2023-01-12T06:36:18.203Z,81.46
2023-01-12T06:38:48.580Z,81.42
2023-01-12T06:41:34.559Z,81.12
2023-01-12T06:44:05.083Z,81.15
2023-01-12T06:46:35.635Z,81.28
2023-01-12T06:49:06.246Z,81.13
2023-01-12T06:51:36.779Z,81.27
2023-01-12T06:54:07.339Z,81.08
2023-01-12T06:56:40.683Z,81.05
2023-01-12T06:59:12.816Z,81.31
2023-01-12T07:01:43.647Z,80.97
2023-01-12T07:04:14.214Z,80.98
2023-01-12T07:06:48.291Z,80.98
2023-01-12T07:09:18.819Z,81.02
2023-01-12T07:11:54.125Z,80.84
2023-01-12T07:14:24.657Z,80.82
2023-01-12T07:16:55.260Z,80.78
2023-01-12T07:19:26.131Z,81.10
2023-01-12T07:22:00.811Z,80.93
2023-01-12T07:24:31.451Z,81.08
2023-01-12T07:27:04.798Z,81.05
2023-01-12T07:29:36.030Z,81.21
2023-01-12T07:32:06.890Z,81.25
2023-01-12T07:34:38.748Z,81.32
2023-01-12T07:37:09.641Z,81.46
2023-01-12T07:39:40.968Z,81.42
2023-01-12T07:42:33.565Z,81.70
2023-01-12T07:45:06.100Z,81.51
2023-01-12T07:47:44.348Z,81.85
2023-01-12T07:50:22.335Z,81.79
2023-01-12T07:52:52.921Z,81.74
2023-01-12T07:55:23.877Z,81.58
2023-01-12T07:58:03.070Z,81.91
2023-01-12T08:00:34.123Z,82.04
2023-01-12T08:03:10.003Z,82.01
2023-01-12T08:05:41.651Z,82.10
2023-01-12T08:08:12.567Z,82.09
2023-01-12T08:10:50.119Z,82.15
2023-01-12T08:13:25.692Z,82.23
2023-01-12T08:15:57.400Z,81.98
2023-01-12T08:18:36.681Z,81.99
2023-01-12T08:21:11.488Z,82.04
2023-01-12T08:23:52.941Z,81.89
2023-01-12T08:26:27.876Z,81.63
2023-01-12T08:29:06.169Z,81.46
2023-01-12T08:31:36.840Z,81.75
2023-01-12T08:34:09.220Z,81.56
2023-01-12T08:36:54.319Z,81.69
2023-01-12T08:39:29.492Z,81.65
2023-01-12T08:42:02.256Z,81.33
2023-01-12T08:44:36.331Z,81.53
2023-01-12T08:47:08.489Z,81.26
2023-01-12T08:49:39.054Z,81.34
2023-01-12T08:52:09.476Z,81.15
2023-01-12T08:54:39.985Z,81.30
2023-01-12T08:57:10.444Z,80.97
2023-01-12T08:59:43.611Z,80.85
2023-01-12T09:02:15.647Z,80.72
2023-01-12T09:04:47.966Z,80.89
2023-01-12T09:07:25.708Z,80.85
2023-01-12T09:09:56.979Z,80.63
2023-01-12T09:12:28.525Z,80.61
2023-01-12T09:15:05.511Z,80.38
2023-01-12T09:17:36.098Z,80.29
2023-01-12T09:20:07.688Z,80.37
2023-01-12T09:22:41.267Z,80.66
2023-01-12T09:25:12.512Z,80.44
2023-01-12T09:27:43.913Z,80.54
2023-01-12T09:30:18.034Z,80.33
2023-01-12T09:32:51.066Z,80.39
2023-01-12T09:35:22.156Z,80.13
2023-01-12T09:37:52.662Z,80.10
2023-01-12T09:40:23.562Z,80.05
2023-01-12T09:43:07.495Z,80.07
2023-01-12T09:45:53.267Z,79.92
2023-01-12T09:48:25.352Z,80.23
2023-01-12T09:51:02.470Z,80.29
2023-01-12T09:53:49.485Z,80.13
2023-01-12T09:56:32.797Z,80.37
2023-01-12T09:59:32.586Z,80.58
2023-01-12T10:02:07.174Z,80.50
2023-01-12T10:04:39.926Z,80.64
2023-01-12T10:07:16.825Z,80.64
2023-01-12T10:09:47.989Z,81.00
2023-01-12T10:12:42.117Z,81.08
2023-01-12T10:15:32.501Z,81.34
2023-01-12T10:18:11.188Z,81.58
2023-01-12T10:20:43.454Z,81.75
2023-01-12T10:23:19.375Z,81.83
2023-01-12T10:26:00.249Z,82.01
2023-01-12T10:28:33.649Z,82.01
2023-01-12T10:31:21.381Z,82.08
2023-01-12T10:34:12.014Z,81.89
2023-01-12T10:36:47.237Z,81.97
2023-01-12T10:39:42.870Z,81.72
2023-01-12T10:42:35.081Z,81.66
2023-01-12T10:45:21.826Z,81.58
2023-01-12T10:47:54.293Z,81.53
2023-01-12T10:50:31.388Z,81.07
2023-01-12T10:53:06.064Z,81.03
2023-01-12T10:55:41.093Z,81.13
2023-01-12T10:58:23.601Z,80.85
2023-01-12T11:00:57.186Z,80.83
2023-01-12T11:03:33.259Z,80.59
2023-01-12T11:06:26.523Z,80.35
2023-01-12T11:09:01.950Z,80.29
2023-01-12T11:11:34.767Z,80.29
2023-01-12T11:14:09.050Z,80.32
2023-01-12T11:16:59.921Z,80.24
2023-01-12T11:19:37.701Z,80.21
2023-01-12T11:22:17.798Z,80.12
2023-01-12T11:24:53.120Z,80.47
2023-01-12T11:27:27.881Z,80.60
2023-01-12T11:30:02.706Z,80.49
2023-01-12T11:32:40.952Z,80.58
2023-01-12T11:35:32.577Z,80.50
2023-01-12T11:38:13.249Z,80.78
2023-01-12T11:40:50.934Z,81.00
2023-01-12T11:43:45.411Z,80.94
2023-01-12T11:46:26.858Z,81.04
2023-01-12T11:49:09.796Z,81.02
2023-01-12T11:51:40.731Z,81.00
2023-01-12T11:54:17.986Z,81.03
2023-01-12T11:57:15.232Z,80.80
2023-01-12T12:00:05.797Z,80.95
2023-01-12T12:02:44.718Z,80.93
2023-01-12T12:05:32.865Z,80.74
2023-01-12T12:08:28.842Z,80.64
2023-01-12T12:11:08.431Z,80.76
2023-01-12T12:13:45.306Z,80.49
2023-01-12T12:16:24.332Z,80.32
2023-01-12T12:19:09.248Z,80.50
2023-01-12T12:21:50.299Z,80.48
2023-01-12T12:24:58.458Z,80.46
2023-01-12T12:27:58.016Z,80.41
2023-01-12T12:31:07.520Z,80.32
2023-01-12T12:34:26.337Z,80.27
2023-01-12T12:37:05.594Z,80.40
2023-01-12T12:39:53.619Z,80.20
2023-01-12T12:42:56.412Z,80.45
2023-01-12T12:45:41.691Z,80.50
2023-01-12T12:48:18.056Z,80.43
2023-01-12T12:50:55.652Z,80.57
2023-01-12T12:53:32.976Z,80.61
2023-01-12T12:56:06.852Z,80.61
2023-01-12T12:58:55.621Z,80.73
2023-01-12T13:02:09.176Z,80.62
2023-01-12T13:05:12.901Z,80.76
2023-01-12T13:07:57.350Z,80.60
2023-01-12T13:10:47.072Z,80.62
2023-01-12T13:13:41.019Z,80.91
2023-01-12T13:16:51.703Z,81.18
2023-01-12T13:19:40.417Z,81.12
2023-01-12T13:22:45.424Z,81.02
2023-01-12T13:25:45.739Z,81.08
2023-01-12T13:28:22.471Z,81.06
2023-01-12T13:30:55.807Z,81.15
2023-01-12T13:33:35.802Z,81.07
2023-01-12T13:36:12.535Z,81.17
2023-01-12T13:38:58.410Z,81.04
2023-01-12T13:41:45.746Z,81.28
2023-01-12T13:44:24.511Z,81.14
2023-01-12T13:47:02.518Z,81.13
2023-01-12T13:49:34.907Z,81.11
2023-01-12T13:52:09.750Z,81.27
2023-01-12T13:54:52.190Z,81.20
2023-01-12T13:57:24.883Z,81.43
2023-01-12T14:00:00.370Z,81.46
2023-01-12T14:02:37.469Z,81.40
2023-01-12T14:05:27.055Z,81.35
2023-01-12T14:08:08.928Z,81.39
2023-01-12T14:10:50.854Z,81.63
2023-01-12T14:13:48.681Z,81.80
2023-01-12T14:16:33.047Z,82.18
2023-01-12T14:19:03.810Z,82.31
2023-01-12T14:21:37.947Z,82.04
2023-01-12T14:24:17.421Z,82.29
2023-01-12T14:26:51.218Z,81.92
2023-01-12T14:29:22.380Z,81.96
2023-01-12T14:31:55.549Z,82.01
2023-01-12T14:34:32.598Z,82.10
2023-01-12T14:37:04.127Z,81.88
2023-01-12T14:39:41.368Z,82.02
2023-01-12T14:42:35.078Z,81.95
2023-01-12T14:45:29.289Z,82.12
2023-01-12T14:48:22.295Z,82.03
2023-01-12T14:51:17.102Z,82.06
2023-01-12T14:53:52.674Z,82.30
2023-01-12T14:56:26.843Z,82.08
2023-01-12T14:59:08.016Z,83.19
2023-01-12T15:01:41.061Z,82.40
2023-01-12T15:04:22.154Z,82.36
2023-01-12T15:07:04.057Z,82.33
2023-01-12T15:09:37.205Z,82.41
2023-01-12T15:12:37.729Z,82.26
2023-01-12T15:15:21.701Z,82.17
2023-01-12T15:18:06.054Z,82.14
2023-01-12T15:20:51.546Z,82.24
2023-01-12T15:23:38.087Z,82.23
2023-01-12T15:26:08.546Z,82.42
2023-01-12T15:28:40.311Z,82.01
2023-01-12T15:31:22.356Z,82.20
2023-01-12T15:33:52.904Z,82.02
2023-01-12T15:36:24.827Z,82.08
2023-01-12T15:38:56.003Z,82.02
2023-01-12T15:41:41.624Z,81.92
2023-01-12T15:44:18.762Z,81.96
2023-01-12T15:46:54.046Z,82.03
2023-01-12T15:49:24.575Z,81.72
2023-01-12T15:51:55.189Z,81.64
2023-01-12T15:54:26.055Z,81.83
2023-01-12T15:56:57.989Z,81.74
2023-01-12T15:59:30.588Z,81.72
2023-01-12T16:02:04.263Z,81.76
2023-01-12T16:04:43.790Z,81.84
2023-01-12T16:07:15.856Z,82.02
2023-01-12T16:09:47.928Z,81.84
2023-01-12T16:12:21.494Z,81.92
2023-01-12T16:14:54.242Z,82.05
2023-01-12T16:17:27.699Z,82.17
2023-01-12T16:19:58.310Z,82.22
2023-01-12T16:22:33.522Z,82.14
2023-01-12T16:25:04.083Z,82.22
2023-01-12T16:27:36.388Z,82.02
2023-01-12T16:30:08.720Z,82.26
2023-01-12T16:32:48.530Z,82.25
2023-01-12T16:35:21.079Z,82.49
2023-01-12T16:37:56.366Z,82.29
2023-01-12T16:40:30.227Z,82.57
2023-01-12T16:43:00.660Z,82.65
2023-01-12T16:45:31.110Z,82.47
2023-01-12T16:48:04.212Z,82.86
2023-01-12T16:50:34.691Z,82.65
2023-01-12T16:53:06.051Z,82.96
2023-01-12T16:55:38.111Z,82.96
2023-01-12T16:58:09.340Z,82.87
2023-01-12T17:00:40.115Z,83.03
2023-01-12T17:03:14.886Z,82.74
2023-01-12T17:05:45.066Z,83.79
2023-01-12T17:08:16.063Z,83.12
2023-01-12T17:10:48.608Z,82.86
2023-01-12T17:13:19.049Z,82.85
2023-01-12T17:15:51.152Z,82.84
2023-01-12T17:18:27.339Z,82.61
2023-01-12T17:21:09.365Z,82.62
2023-01-12T17:23:41.772Z,82.65
2023-01-12T17:26:17.637Z,82.80
2023-01-12T17:28:57.719Z,82.89
2023-01-12T17:31:28.520Z,83.14
2023-01-12T17:34:01.650Z,83.02
2023-01-12T17:36:32.874Z,83.13
2023-01-12T17:39:06.332Z,83.20
2023-01-12T17:41:49.656Z,83.26
2023-01-12T17:44:20.544Z,83.39
2023-01-12T17:46:51.546Z,83.19
2023-01-12T17:49:27.183Z,83.33
2023-01-12T17:51:57.711Z,83.47
2023-01-12T17:54:28.337Z,83.45
2023-01-12T17:57:01.598Z,83.74
2023-01-12T17:59:32.122Z,83.64
2023-01-12T18:02:04.216Z,83.63
2023-01-12T18:04:37.389Z,83.72
2023-01-12T18:07:08.168Z,83.86
2023-01-12T18:09:39.580Z,83.78
2023-01-12T18:12:12.551Z,84.16
2023-01-12T18:14:43.193Z,84.27
2023-01-12T18:17:14.204Z,84.22
2023-01-12T18:19:47.394Z,84.26
2023-01-12T18:22:17.948Z,84.31
2023-01-12T18:24:48.500Z,84.68
2023-01-12T18:27:23.569Z,84.64
2023-01-12T18:29:54.500Z,84.82
2023-01-12T18:32:24.981Z,84.66
2023-01-12T18:34:59.570Z,84.54
2023-01-12T18:37:30.003Z,84.84
2023-01-12T18:40:00.505Z,84.50
2023-01-12T18:42:43.701Z,84.64
2023-01-12T18:45:14.149Z,84.59
2023-01-12T18:47:57.135Z,84.73
2023-01-12T18:50:46.814Z,84.80
2023-01-12T18:53:33.823Z,84.36
2023-01-12T18:56:06.644Z,84.53
2023-01-12T18:58:39.285Z,84.39
2023-01-12T19:01:10.234Z,84.55
2023-01-12T19:03:41.430Z,84.32
2023-01-12T19:06:23.419Z,84.17
2023-01-12T19:09:08.041Z,84.51
2023-01-12T19:11:39.308Z,84.67
2023-01-12T19:14:22.480Z,84.54
2023-01-12T19:17:05.898Z,84.51
2023-01-12T19:19:37.195Z,84.38
2023-01-12T19:22:22.744Z,84.31
2023-01-12T19:25:05.698Z,84.54
2023-01-12T19:27:48.579Z,84.53
2023-01-12T19:30:19.017Z,84.56
2023-01-12T19:32:49.540Z,84.76
2023-01-12T19:35:27.534Z,84.87
2023-01-12T19:38:00.592Z,84.65
2023-01-12T19:40:34.782Z,84.40
2023-01-12T19:43:14.439Z,84.50
2023-01-12T19:45:46.279Z,84.36
2023-01-12T19:48:19.551Z,84.45
2023-01-12T19:50:50.490Z,84.25
2023-01-12T19:53:26.002Z,84.58
2023-01-12T19:55:56.619Z,84.67
2023-01-12T19:58:28.238Z,84.51
2023-01-12T20:01:00.792Z,84.46
2023-01-12T20:03:39.880Z,84.57
2023-01-12T20:06:11.487Z,84.66
2023-01-12T20:08:44.702Z,84.60
2023-01-12T20:11:16.244Z,84.82
2023-01-12T20:13:47.019Z,84.69
2023-01-12T20:16:18.396Z,84.86
2023-01-12T20:18:49.086Z,84.95
2023-01-12T20:21:21.836Z,84.67
2023-01-12T20:23:55.152Z,84.63
2023-01-12T20:26:25.673Z,84.49
2023-01-12T20:29:06.421Z,84.59
2023-01-12T20:31:38.775Z,84.55
2023-01-12T20:34:10.459Z,84.57
2023-01-12T20:36:46.528Z,84.76
2023-01-12T20:39:24.153Z,84.83
2023-01-12T20:41:58.461Z,84.75
2023-01-12T20:44:31.449Z,85.06
2023-01-12T20:47:03.752Z,84.87
2023-01-12T20:49:36.250Z,84.84
2023-01-12T20:52:18.267Z,84.86
2023-01-12T20:54:53.808Z,85.20
2023-01-12T20:57:24.710Z,84.74
2023-01-12T20:59:55.588Z,84.80
2023-01-12T21:02:28.222Z,84.59
2023-01-12T21:05:06.733Z,84.74
2023-01-12T21:07:37.487Z,84.78
2023-01-12T21:10:14.188Z,84.97
2023-01-12T21:12:46.473Z,84.97
2023-01-12T21:15:18.270Z,85.08
2023-01-12T21:17:48.794Z,84.92
2023-01-12T21:20:20.049Z,85.06
2023-01-12T21:22:50.683Z,84.88
2023-01-12T21:25:27.984Z,84.74
2023-01-12T21:27:59.392Z,85.09
2023-01-12T21:30:30.042Z,85.17
2023-01-12T21:33:00.824Z,84.87
2023-01-12T21:35:31.498Z,85.14
2023-01-12T21:38:02.993Z,85.13
2023-01-12T21:40:36.214Z,85.13
2023-01-12T21:43:15.832Z,85.38
2023-01-12T21:45:48.419Z,85.38
2023-01-12T21:48:20.805Z,85.44
2023-01-12T21:50:51.431Z,85.24
2023-01-12T21:53:26.299Z,85.62
2023-01-12T21:56:01.260Z,85.31
2023-01-12T21:58:33.711Z,85.58
2023-01-12T22:01:10.531Z,85.54
2023-01-12T22:03:50.495Z,85.30
2023-01-12T22:06:20.928Z,85.31
2023-01-12T22:08:51.466Z,85.13
2023-01-12T22:11:24.531Z,85.20
2023-01-12T22:13:54.985Z,85.22
2023-01-12T22:16:25.638Z,84.67
2023-01-12T22:18:56.187Z,84.91
2023-01-12T22:21:26.853Z,85.01
2023-01-12T22:23:59.663Z,84.86
2023-01-12T22:26:32.854Z,84.89
2023-01-12T22:29:03.411Z,84.78
2023-01-12T22:31:34.146Z,84.90
2023-01-12T22:34:06.959Z,84.79
2023-01-12T22:36:43.192Z,84.78
2023-01-12T22:39:23.300Z,84.61
2023-01-12T22:41:56.444Z,84.49
2023-01-12T22:44:27.775Z,84.59
2023-01-12T22:46:58.164Z,84.42
2023-01-12T22:49:29.625Z,84.39
2023-01-12T22:52:00.097Z,84.44
2023-01-12T22:54:30.692Z,84.62
2023-01-12T22:57:06.849Z,84.51
2023-01-12T22:59:37.515Z,84.64
2023-01-12T23:02:28.514Z,84.55
2023-01-12T23:04:59.068Z,84.44
2023-01-12T23:07:29.918Z,84.58
2023-01-12T23:10:00.454Z,84.60
2023-01-12T23:12:33.538Z,84.52
2023-01-12T23:15:04.001Z,84.32
2023-01-12T23:17:36.889Z,84.27
2023-01-12T23:20:08.966Z,84.27
2023-01-12T23:22:47.058Z,84.34
2023-01-12T23:25:17.630Z,84.10
2023-01-12T23:27:52.534Z,84.16
2023-01-12T23:30:23.427Z,84.11
2023-01-12T23:32:53.919Z,83.93
2023-01-12T23:35:24.420Z,83.98
2023-01-12T23:37:56.829Z,83.88
2023-01-12T23:40:27.547Z,83.84
2023-01-12T23:43:01.820Z,83.99
2023-01-12T23:45:32.553Z,84.03
2023-01-12T23:48:06.818Z,84.39
2023-01-12T23:50:37.452Z,84.56
2023-01-12T23:53:07.930Z,84.38
2023-01-12T23:55:41.965Z,84.54
2023-01-12T23:58:15.180Z,84.44
